Time;durP1;ratioP1;P1;durP2;ratioP2;P2;SDS_P1;SDS_P2;PMS_P1;PMS_P2;Temp;Humidity;BMP_temperature;BMP_pressure;BME280_temperature;BME280_humidity;BME280_pressure;Samples;Min_cycle;Max_cycle;Signal;HPM_P1;HPM_P2
2022/07/06 00:00:50;;;;;;;0.00;0.00;;;;;;;;;;5021265;28;20270;-76
2022/07/06 00:03:16;;;;;;;0.00;0.00;;;;;;;;;;5035804;28;20306;-78
2022/07/06 00:05:42;;;;;;;0.08;0.08;;;;;;;;;;5020591;28;20244;-78
2022/07/06 00:08:09;;;;;;;0.00;0.00;;;;;;;;;;5035994;28;20215;-78
2022/07/06 00:10:35;;;;;;;0.00;0.00;;;;;;;;;;5019538;28;20242;-78
2022/07/06 00:13:01;;;;;;;0.00;0.00;;;;;;;;;;5037480;28;20303;-79
2022/07/06 00:15:29;;;;;;;0.10;0.10;;;;;;;;;;5018598;28;20313;-78
2022/07/06 00:17:55;;;;;;;0.10;0.10;;;;;;;;;;5037682;28;20236;-79
2022/07/06 00:20:22;;;;;;;0.10;0.10;;;;;;;;;;5018105;28;20208;-78
2022/07/06 00:22:48;;;;;;;0.00;0.00;;;;;;;;;;5039141;28;20207;-79
2022/07/06 00:25:14;;;;;;;0.00;0.00;;;;;;;;;;5016655;28;20253;-78
2022/07/06 00:27:41;;;;;;;0.00;0.00;;;;;;;;;;5039372;28;20197;-78
2022/07/06 00:30:08;;;;;;;0.00;0.00;;;;;;;;;;5015714;28;20275;-77
2022/07/06 00:32:36;;;;;;;0.00;0.00;;;;;;;;;;5040426;28;20274;-78
2022/07/06 00:35:02;;;;;;;0.00;0.00;;;;;;;;;;5025453;28;20391;-78
2022/07/06 00:37:28;;;;;;;0.00;0.00;;;;;;;;;;5031047;28;20244;-79
2022/07/06 00:39:55;;;;;;;0.00;0.00;;;;;;;;;;5025974;28;20457;-78
2022/07/06 00:42:21;;;;;;;0.00;0.00;;;;;;;;;;5030799;28;20444;-79
2022/07/06 00:44:47;;;;;;;0.00;0.00;;;;;;;;;;5025292;28;20256;-79
2022/07/06 00:47:14;;;;;;;0.00;0.00;;;;;;;;;;5030753;28;20338;-79
2022/07/06 00:52:25;;;;;;;0.10;0.10;;;;;;;;;;5030668;28;20304;-78
2022/07/06 00:54:52;;;;;;;0.00;0.00;;;;;;;;;;5025133;28;20233;-78
2022/07/06 00:57:19;;;;;;;0.10;0.10;;;;;;;;;;5030288;28;20243;-79
2022/07/06 00:59:46;;;;;;;0.00;0.00;;;;;;;;;;5024882;28;20289;-79
2022/07/06 01:02:13;;;;;;;0.10;0.10;;;;;;;;;;5030330;28;20242;-77
2022/07/06 01:04:39;;;;;;;0.10;0.10;;;;;;;;;;5025328;28;20228;-79
2022/07/06 01:07:07;;;;;;;0.05;0.05;;;;;;;;;;5030454;28;20310;-78
2022/07/06 01:09:33;;;;;;;0.00;0.00;;;;;;;;;;5024229;28;20210;-79
2022/07/06 01:12:01;;;;;;;0.10;0.10;;;;;;;;;;5029274;28;20247;-79
2022/07/06 01:14:28;;;;;;;0.00;0.00;;;;;;;;;;5025876;28;20300;-77
2022/07/06 01:16:54;;;;;;;0.00;0.00;;;;;;;;;;5028321;28;20244;-78
2022/07/06 01:19:20;;;;;;;0.00;0.00;;;;;;;;;;5026570;28;20292;-80
2022/07/06 01:21:48;;;;;;;0.00;0.00;;;;;;;;;;5027928;28;20249;-79
2022/07/06 01:24:14;;;;;;;0.00;0.00;;;;;;;;;;5027191;28;20265;-79
2022/07/06 01:26:41;;;;;;;0.00;0.00;;;;;;;;;;5027213;28;20304;-78
2022/07/06 01:29:07;;;;;;;0.00;0.00;;;;;;;;;;5027971;28;20206;-78
2022/07/06 01:31:33;;;;;;;0.00;0.00;;;;;;;;;;5025583;28;20242;-79
2022/07/06 01:34:00;;;;;;;0.00;0.00;;;;;;;;;;5028316;28;20547;-79
2022/07/06 01:36:26;;;;;;;0.00;0.00;;;;;;;;;;5024643;28;20247;-80
2022/07/06 01:38:55;;;;;;;0.00;0.00;;;;;;;;;;5029328;28;20273;-78
2022/07/06 01:41:24;;;;;;;0.00;0.00;;;;;;;;;;5023849;28;20287;-78
2022/07/06 01:43:51;;;;;;;0.00;0.00;;;;;;;;;;5029801;28;20216;-79
2022/07/06 01:46:18;;;;;;;0.00;0.00;;;;;;;;;;5023481;28;20243;-79
2022/07/06 01:48:44;;;;;;;0.00;0.00;;;;;;;;;;5030541;28;20271;-78
2022/07/06 01:51:11;;;;;;;0.00;0.00;;;;;;;;;;5022821;28;20253;-80
2022/07/06 01:53:38;;;;;;;0.05;0.05;;;;;;;;;;5031301;28;20207;-80
2022/07/06 01:56:06;;;;;;;0.05;0.05;;;;;;;;;;5021588;28;20243;-79
2022/07/06 01:58:32;;;;;;;0.00;0.00;;;;;;;;;;5031755;28;20250;-78
2022/07/06 02:00:59;;;;;;;0.00;0.00;;;;;;;;;;5020942;28;20248;-79
2022/07/06 02:03:25;;;;;;;0.00;0.00;;;;;;;;;;5032306;28;20243;-79
2022/07/06 02:05:52;;;;;;;0.10;0.10;;;;;;;;;;5019995;28;20241;-78
2022/07/06 02:08:18;;;;;;;0.00;0.00;;;;;;;;;;5033348;28;20207;-78
2022/07/06 02:10:45;;;;;;;0.00;0.00;;;;;;;;;;5019013;28;20257;-79
2022/07/06 02:13:12;;;;;;;0.00;0.00;;;;;;;;;;5034272;28;20274;-78
2022/07/06 02:15:38;;;;;;;0.10;0.10;;;;;;;;;;5017236;28;20333;-79
2022/07/06 02:18:05;;;;;;;0.00;0.00;;;;;;;;;;5034943;28;20230;-79
2022/07/06 02:20:31;;;;;;;0.00;0.00;;;;;;;;;;5017219;28;20302;-78
2022/07/06 02:22:58;;;;;;;0.08;0.08;;;;;;;;;;5035514;28;20437;-78
2022/07/06 02:25:24;;;;;;;0.00;0.00;;;;;;;;;;5016409;28;20802;-78
2022/07/06 02:27:50;;;;;;;0.00;0.00;;;;;;;;;;5036492;28;20385;-78
2022/07/06 02:30:18;;;;;;;0.00;0.00;;;;;;;;;;5014918;28;20384;-78
2022/07/06 02:32:44;;;;;;;0.05;0.05;;;;;;;;;;5037403;28;20489;-78
2022/07/06 02:35:11;;;;;;;0.00;0.00;;;;;;;;;;5014230;28;20231;-78
2022/07/06 02:37:37;;;;;;;0.00;0.00;;;;;;;;;;5037976;28;20200;-79
2022/07/06 02:40:04;;;;;;;0.00;0.00;;;;;;;;;;5023416;28;20438;-78
2022/07/06 02:42:30;;;;;;;0.10;0.10;;;;;;;;;;5012122;28;20336;-78
2022/07/06 02:44:57;;;;;;;0.10;0.10;;;;;;;;;;5023574;28;20203;-78
2022/07/06 02:47:26;;;;;;;0.00;0.00;;;;;;;;;;5028504;28;20253;-79
2022/07/06 02:49:56;;;;;;;0.10;0.10;;;;;;;;;;5023419;28;20280;-79
2022/07/06 02:52:22;;;;;;;0.10;0.10;;;;;;;;;;5029214;28;20393;-79
2022/07/06 02:54:49;;;;;;;0.10;0.10;;;;;;;;;;5023532;28;20263;-78
2022/07/06 02:57:16;;;;;;;0.10;0.10;;;;;;;;;;5029052;28;20336;-78
2022/07/06 02:59:42;;;;;;;0.00;0.00;;;;;;;;;;5023676;28;20234;-79
2022/07/06 03:02:08;;;;;;;0.00;0.00;;;;;;;;;;5029467;28;20675;-79
2022/07/06 03:04:36;;;;;;;0.10;0.10;;;;;;;;;;5023847;28;20271;-80
2022/07/06 03:07:03;;;;;;;0.00;0.00;;;;;;;;;;5028457;28;20342;-79
2022/07/06 03:09:29;;;;;;;0.00;0.00;;;;;;;;;;5023982;28;20206;-78
2022/07/06 03:11:55;;;;;;;0.05;0.05;;;;;;;;;;5027170;28;20249;-79
2022/07/06 03:14:22;;;;;;;0.00;0.00;;;;;;;;;;5024400;28;20232;-79
2022/07/06 03:16:48;;;;;;;0.05;0.05;;;;;;;;;;5026066;28;20546;-78
2022/07/06 03:19:14;;;;;;;0.00;0.00;;;;;;;;;;5025039;28;20575;-78
2022/07/06 03:21:42;;;;;;;0.00;0.00;;;;;;;;;;5025366;28;20487;-79
2022/07/06 03:24:09;;;;;;;0.00;0.00;;;;;;;;;;5026102;28;20331;-77
2022/07/06 03:26:35;;;;;;;0.10;0.10;;;;;;;;;;5026160;28;20268;-79
2022/07/06 03:29:01;;;;;;;0.00;0.00;;;;;;;;;;5031378;28;20208;-78
2022/07/06 03:31:28;;;;;;;0.10;0.10;;;;;;;;;;5026855;28;20244;-78
2022/07/06 03:33:54;;;;;;;0.08;0.08;;;;;;;;;;5031636;28;20207;-78
2022/07/06 03:36:21;;;;;;;0.00;0.00;;;;;;;;;;5026455;28;20280;-80
2022/07/06 03:38:48;;;;;;;0.05;0.05;;;;;;;;;;5033018;28;20206;-79
2022/07/06 03:41:15;;;;;;;0.10;0.10;;;;;;;;;;5025294;28;20241;-79
2022/07/06 03:43:41;;;;;;;0.08;0.08;;;;;;;;;;5033396;28;20301;-79
2022/07/06 03:46:07;;;;;;;0.05;0.05;;;;;;;;;;5024631;28;20258;-79
2022/07/06 03:48:34;;;;;;;0.00;0.00;;;;;;;;;;5034208;28;20280;-80
2022/07/06 03:51:00;;;;;;;0.05;0.05;;;;;;;;;;5024009;28;20431;-78
2022/07/06 03:53:27;;;;;;;0.00;0.00;;;;;;;;;;5035584;28;20216;-79
2022/07/06 03:58:38;;;;;;;0.00;0.00;;;;;;;;;;5034214;28;20198;-78
2022/07/06 04:01:05;;;;;;;0.00;0.00;;;;;;;;;;5023437;28;20243;-79
2022/07/06 04:03:32;;;;;;;0.05;0.05;;;;;;;;;;5035007;28;20207;-78
2022/07/06 04:05:58;;;;;;;0.00;0.00;;;;;;;;;;5022024;28;20251;-78
2022/07/06 04:08:25;;;;;;;0.00;0.00;;;;;;;;;;5036696;28;20246;-79
2022/07/06 04:10:55;;;;;;;0.10;0.10;;;;;;;;;;5022898;28;20254;-80
2022/07/06 04:13:23;;;;;;;0.00;0.00;;;;;;;;;;5035857;28;20244;-79
2022/07/06 04:15:49;;;;;;;0.10;0.10;;;;;;;;;;5022209;28;20334;-78
2022/07/06 04:18:16;;;;;;;0.08;0.08;;;;;;;;;;5036430;28;20438;-79
2022/07/06 04:20:42;;;;;;;0.05;0.05;;;;;;;;;;5021629;28;20257;-78
2022/07/06 04:23:08;;;;;;;0.05;0.05;;;;;;;;;;5037737;28;20201;-78
2022/07/06 04:25:35;;;;;;;0.05;0.05;;;;;;;;;;5020170;28;20312;-80
2022/07/06 04:28:03;;;;;;;0.10;0.10;;;;;;;;;;5038481;28;20205;-78
2022/07/06 04:30:29;;;;;;;0.10;0.10;;;;;;;;;;5019651;28;20243;-79
2022/07/06 04:32:56;;;;;;;0.00;0.00;;;;;;;;;;5038122;28;20224;-80
2022/07/06 04:35:22;;;;;;;0.10;0.10;;;;;;;;;;5017639;28;20234;-79
2022/07/06 04:37:49;;;;;;;0.00;0.00;;;;;;;;;;5038374;28;20197;-78
2022/07/06 04:40:15;;;;;;;0.10;0.10;;;;;;;;;;5016797;28;20271;-79
2022/07/06 04:42:41;;;;;;;0.10;0.10;;;;;;;;;;5040261;28;20195;-79
2022/07/06 04:45:10;;;;;;;0.00;0.00;;;;;;;;;;5015772;28;20380;-79
2022/07/06 04:47:36;;;;;;;0.00;0.00;;;;;;;;;;5040088;28;20247;-79
2022/07/06 04:50:04;;;;;;;0.10;0.10;;;;;;;;;;5025744;28;20205;-78
2022/07/06 04:52:30;;;;;;;0.03;0.03;;;;;;;;;;5014179;28;20281;-79
2022/07/06 04:54:56;;;;;;;0.00;0.00;;;;;;;;;;5025287;28;20249;-79
2022/07/06 04:57:25;;;;;;;0.08;0.08;;;;;;;;;;5030760;28;20465;-78
2022/07/06 04:59:51;;;;;;;0.00;0.00;;;;;;;;;;5025678;28;20245;-78
2022/07/06 05:02:19;;;;;;;0.00;0.00;;;;;;;;;;5030716;28;20314;-79
2022/07/06 05:04:45;;;;;;;0.10;0.10;;;;;;;;;;5025144;28;20392;-78
2022/07/06 05:07:12;;;;;;;0.10;0.10;;;;;;;;;;5031154;28;20238;-79
2022/07/06 05:09:38;;;;;;;0.00;0.00;;;;;;;;;;5026457;28;20286;-79
2022/07/06 05:12:05;;;;;;;0.10;0.10;;;;;;;;;;5031787;28;20442;-79
2022/07/06 05:14:31;;;;;;;0.10;0.10;;;;;;;;;;5025593;28;20209;-78
2022/07/06 05:16:57;;;;;;;0.00;0.00;;;;;;;;;;5029022;28;20485;-78
2022/07/06 05:19:25;;;;;;;0.00;0.00;;;;;;;;;;5025844;28;20224;-77
2022/07/06 05:21:51;;;;;;;0.00;0.00;;;;;;;;;;5028597;28;20250;-81
2022/07/06 05:24:18;;;;;;;0.00;0.00;;;;;;;;;;5026786;28;20242;-78
2022/07/06 05:26:45;;;;;;;0.00;0.00;;;;;;;;;;5027548;28;20293;-77
2022/07/06 05:29:12;;;;;;;0.00;0.00;;;;;;;;;;5027407;28;20209;-79
2022/07/06 05:31:38;;;;;;;0.00;0.00;;;;;;;;;;5027007;28;20251;-80
2022/07/06 05:34:06;;;;;;;0.10;0.10;;;;;;;;;;5028367;28;20239;-78
2022/07/06 05:36:33;;;;;;;0.00;0.00;;;;;;;;;;5025763;28;20249;-80
2022/07/06 05:39:00;;;;;;;0.10;0.10;;;;;;;;;;5029064;28;20277;-79
2022/07/06 05:41:26;;;;;;;0.03;0.03;;;;;;;;;;5024862;28;20244;-79
2022/07/06 05:43:52;;;;;;;0.00;0.00;;;;;;;;;;5029717;28;20374;-78
2022/07/06 05:46:19;;;;;;;0.10;0.10;;;;;;;;;;5023816;28;20263;-78
2022/07/06 05:51:29;;;;;;;0.03;0.03;;;;;;;;;;5024848;28;20286;-79
2022/07/06 05:53:57;;;;;;;0.00;0.00;;;;;;;;;;5022756;28;20202;-77
2022/07/06 05:56:23;;;;;;;0.00;0.00;;;;;;;;;;5023973;28;20250;-78
2022/07/06 05:58:50;;;;;;;0.00;0.00;;;;;;;;;;5029490;28;20217;-73
2022/07/06 06:01:16;;;;;;;0.00;0.00;;;;;;;;;;5023079;28;20265;-78
2022/07/06 06:03:42;;;;;;;0.00;0.00;;;;;;;;;;5030623;28;20217;-78
2022/07/06 06:06:09;;;;;;;0.10;0.10;;;;;;;;;;5021888;28;20254;-77
2022/07/06 06:08:35;;;;;;;0.00;0.00;;;;;;;;;;5030764;28;20208;-78
2022/07/06 06:11:03;;;;;;;0.10;0.10;;;;;;;;;;5020905;28;20446;-78
2022/07/06 06:13:29;;;;;;;0.10;0.10;;;;;;;;;;5031965;28;20215;-77
2022/07/06 06:15:55;;;;;;;0.00;0.00;;;;;;;;;;5019522;28;20477;-72
2022/07/06 06:18:22;;;;;;;0.00;0.00;;;;;;;;;;5032360;28;20556;-71
2022/07/06 06:20:49;;;;;;;0.00;0.00;;;;;;;;;;5018613;28;20254;-71
2022/07/06 06:23:15;;;;;;;0.00;0.00;;;;;;;;;;5033433;28;20209;-72
2022/07/06 06:25:41;;;;;;;0.08;0.08;;;;;;;;;;5018151;28;20321;-73
2022/07/06 06:28:10;;;;;;;0.00;0.00;;;;;;;;;;5034372;28;20265;-71
2022/07/06 06:30:37;;;;;;;0.00;0.00;;;;;;;;;;5017491;28;20250;-72
2022/07/06 06:33:10;;;;;;;0.00;0.00;;;;;;;;;;5034612;28;20197;-73
2022/07/06 06:35:37;;;;;;;0.08;0.08;;;;;;;;;;5016575;28;20243;-70
2022/07/06 06:38:03;;;;;;;0.00;0.00;;;;;;;;;;5034097;28;20231;-74
2022/07/06 06:40:30;;;;;;;0.00;0.00;;;;;;;;;;5015996;28;20251;-72
2022/07/06 06:42:56;;;;;;;0.08;0.08;;;;;;;;;;5035245;28;20499;-73
2022/07/06 06:45:24;;;;;;;0.00;0.00;;;;;;;;;;5014823;28;20534;-72
2022/07/06 06:47:50;;;;;;;0.00;0.00;;;;;;;;;;5036074;28;20198;-73
2022/07/06 06:50:16;;;;;;;0.00;0.00;;;;;;;;;;5014239;28;20388;-73
2022/07/06 06:52:43;;;;;;;0.10;0.10;;;;;;;;;;5036893;28;20225;-75
2022/07/06 06:55:09;;;;;;;0.00;0.00;;;;;;;;;;5013401;28;20234;-74
2022/07/06 06:57:36;;;;;;;0.10;0.10;;;;;;;;;;5037504;28;20540;-73
2022/07/06 07:00:03;;;;;;;0.00;0.00;;;;;;;;;;5022753;28;20225;-74
2022/07/06 07:02:30;;;;;;;0.00;0.00;;;;;;;;;;5027572;28;20260;-74
2022/07/06 07:04:57;;;;;;;0.08;0.08;;;;;;;;;;5022716;28;20222;-78
2022/07/06 07:07:23;;;;;;;0.00;0.00;;;;;;;;;;5028208;28;20267;-76
2022/07/06 07:09:50;;;;;;;0.10;0.10;;;;;;;;;;5022632;28;20208;-74
2022/07/06 07:12:16;;;;;;;0.00;0.00;;;;;;;;;;5027888;28;20516;-75
2022/07/06 07:14:43;;;;;;;0.10;0.10;;;;;;;;;;5022927;28;20429;-74
2022/07/06 07:17:10;;;;;;;0.00;0.00;;;;;;;;;;5027722;28;20310;-75
2022/07/06 07:19:38;;;;;;;0.00;0.00;;;;;;;;;;5022579;28;20216;-75
2022/07/06 07:22:05;;;;;;;0.00;0.00;;;;;;;;;;5027873;28;20275;-75
2022/07/06 07:24:31;;;;;;;0.00;0.00;;;;;;;;;;5023012;28;20251;-75
2022/07/06 07:26:58;;;;;;;0.00;0.00;;;;;;;;;;5026911;28;20412;-75
2022/07/06 07:29:24;;;;;;;0.05;0.05;;;;;;;;;;5023626;28;20219;-75
2022/07/06 07:31:50;;;;;;;0.00;0.00;;;;;;;;;;5025865;28;20326;-73
2022/07/06 07:34:17;;;;;;;0.00;0.00;;;;;;;;;;5024379;28;20518;-76
2022/07/06 07:36:44;;;;;;;0.00;0.00;;;;;;;;;;5024947;28;20489;-75
2022/07/06 07:39:11;;;;;;;0.10;0.10;;;;;;;;;;5025411;28;20233;-75
2022/07/06 07:41:37;;;;;;;0.10;0.10;;;;;;;;;;5024199;28;20260;-75
2022/07/06 07:44:04;;;;;;;0.00;0.00;;;;;;;;;;5026253;28;20273;-75
2022/07/06 07:46:30;;;;;;;0.00;0.00;;;;;;;;;;5023220;28;20302;-74
2022/07/06 07:48:56;;;;;;;0.10;0.10;;;;;;;;;;5026643;28;20220;-76
2022/07/06 07:51:23;;;;;;;0.10;0.10;;;;;;;;;;5022256;28;20242;-74
2022/07/06 07:53:50;;;;;;;0.00;0.00;;;;;;;;;;5027939;28;20208;-74
2022/07/06 07:56:17;;;;;;;0.00;0.00;;;;;;;;;;5021330;28;20233;-76
2022/07/06 07:58:43;;;;;;;0.10;0.10;;;;;;;;;;5028589;28;20277;-74
2022/07/06 08:01:10;;;;;;;0.00;0.00;;;;;;;;;;5020377;28;20322;-74
2022/07/06 08:03:37;;;;;;;0.10;0.10;;;;;;;;;;5029120;28;20207;-74
2022/07/06 08:06:03;;;;;;;0.00;0.00;;;;;;;;;;5019243;28;20261;-74
2022/07/06 08:08:29;;;;;;;0.00;0.00;;;;;;;;;;5029927;28;20284;-74
2022/07/06 08:10:57;;;;;;;0.00;0.00;;;;;;;;;;5018575;28;20241;-74
2022/07/06 08:13:23;;;;;;;0.00;0.00;;;;;;;;;;5031592;28;20272;-74
2022/07/06 08:15:50;;;;;;;0.10;0.10;;;;;;;;;;5021200;28;20397;-74
2022/07/06 08:18:16;;;;;;;0.00;0.00;;;;;;;;;;5035111;28;20227;-74
2022/07/06 08:20:42;;;;;;;0.10;0.10;;;;;;;;;;5020136;28;20539;-74
2022/07/06 08:23:09;;;;;;;0.00;0.00;;;;;;;;;;5035912;28;20202;-74
2022/07/06 08:25:35;;;;;;;0.00;0.00;;;;;;;;;;5019380;28;20481;-74
2022/07/06 08:28:03;;;;;;;0.00;0.00;;;;;;;;;;5037008;28;20278;-77
2022/07/06 08:30:31;;;;;;;0.00;0.00;;;;;;;;;;5018618;28;20250;-74
2022/07/06 08:32:57;;;;;;;0.08;0.08;;;;;;;;;;5037224;28;20207;-78
2022/07/06 08:35:24;;;;;;;0.00;0.00;;;;;;;;;;5017297;28;20287;-76
2022/07/06 08:37:50;;;;;;;0.00;0.00;;;;;;;;;;5037970;28;20217;-75
2022/07/06 08:40:19;;;;;;;0.00;0.00;;;;;;;;;;5016814;28;20213;-78
2022/07/06 08:42:47;;;;;;;0.00;0.00;;;;;;;;;;5038580;28;20274;-76
2022/07/06 08:45:17;;;;;;;0.10;0.10;;;;;;;;;;5016342;28;20385;-77
2022/07/06 08:47:43;;;;;;;0.10;0.10;;;;;;;;;;5038848;28;20216;-81
2022/07/06 08:50:10;;;;;;;0.10;0.10;;;;;;;;;;5015872;28;20215;-78
2022/07/06 08:52:37;;;;;;;0.00;0.00;;;;;;;;;;5039764;28;20233;-76
2022/07/06 08:55:03;;;;;;;0.00;0.00;;;;;;;;;;5024925;28;20241;-77
2022/07/06 08:57:30;;;;;;;0.10;0.10;;;;;;;;;;5013954;28;20232;-76
2022/07/06 08:59:56;;;;;;;0.08;0.08;;;;;;;;;;5024796;28;20208;-78
2022/07/06 09:02:26;;;;;;;0.00;0.00;;;;;;;;;;5030346;28;20241;-77
2022/07/06 09:04:55;;;;;;;0.00;0.00;;;;;;;;;;5024898;28;20218;-77
2022/07/06 09:07:22;;;;;;;0.00;0.00;;;;;;;;;;5029907;28;20245;-76
2022/07/06 09:09:49;;;;;;;0.00;0.00;;;;;;;;;;5024604;28;20206;-77
2022/07/06 09:12:15;;;;;;;0.00;0.00;;;;;;;;;;5030029;28;20560;-76
2022/07/06 09:14:42;;;;;;;0.00;0.00;;;;;;;;;;5024753;28;20525;-77
2022/07/06 09:17:08;;;;;;;0.00;0.00;;;;;;;;;;5029706;28;20233;-76
2022/07/06 09:19:36;;;;;;;0.00;0.00;;;;;;;;;;5024443;28;20277;-76
2022/07/06 09:22:03;;;;;;;0.00;0.00;;;;;;;;;;5029314;28;20249;-75
2022/07/06 09:24:31;;;;;;;0.00;0.00;;;;;;;;;;5024200;28;20245;-78
2022/07/06 09:26:58;;;;;;;0.00;0.00;;;;;;;;;;5028678;28;20411;-77
2022/07/06 09:29:29;;;;;;;0.10;0.10;;;;;;;;;;5024827;28;20249;-77
2022/07/06 09:31:59;;;;;;;0.10;0.10;;;;;;;;;;5028307;28;20295;-78
2022/07/06 09:34:26;;;;;;;0.00;0.00;;;;;;;;;;5024980;28;20209;-76
2022/07/06 09:36:54;;;;;;;0.00;0.00;;;;;;;;;;5027875;28;20234;-76
2022/07/06 09:39:23;;;;;;;0.00;0.00;;;;;;;;;;5025880;28;20222;-77
2022/07/06 09:41:53;;;;;;;0.00;0.00;;;;;;;;;;5027221;28;20299;-75
2022/07/06 09:44:21;;;;;;;0.00;0.00;;;;;;;;;;5025969;28;20245;-76
2022/07/06 09:46:47;;;;;;;0.00;0.00;;;;;;;;;;5026814;28;20489;-76
2022/07/06 09:49:17;;;;;;;0.00;0.00;;;;;;;;;;5026166;28;20371;-77
2022/07/06 09:51:45;;;;;;;0.03;0.03;;;;;;;;;;5026432;28;20282;-77
2022/07/06 09:54:12;;;;;;;0.00;0.00;;;;;;;;;;5026883;28;20207;-75
2022/07/06 09:56:39;;;;;;;0.00;0.00;;;;;;;;;;5025736;28;20265;-76
2022/07/06 09:59:08;;;;;;;0.00;0.00;;;;;;;;;;5026799;28;20361;-74
2022/07/06 10:01:38;;;;;;;0.00;0.00;;;;;;;;;;5024570;28;20393;-76
2022/07/06 10:04:04;;;;;;;0.00;0.00;;;;;;;;;;5027900;28;20290;-77
2022/07/06 10:06:31;;;;;;;0.10;0.10;;;;;;;;;;5024329;28;20249;-77
2022/07/06 10:08:58;;;;;;;0.10;0.10;;;;;;;;;;5027768;28;20206;-77
2022/07/06 10:11:26;;;;;;;0.00;0.00;;;;;;;;;;5023485;28;20271;-76
2022/07/06 10:13:55;;;;;;;0.00;0.00;;;;;;;;;;5028280;28;20258;-74
2022/07/06 10:16:22;;;;;;;0.00;0.00;;;;;;;;;;5022975;28;20340;-73
2022/07/06 10:18:49;;;;;;;0.00;0.00;;;;;;;;;;5028679;28;20282;-74
2022/07/06 10:21:16;;;;;;;0.10;0.10;;;;;;;;;;5022190;28;20311;-74
2022/07/06 10:23:43;;;;;;;0.00;0.00;;;;;;;;;;5029772;28;20209;-74
2022/07/06 10:26:10;;;;;;;0.00;0.00;;;;;;;;;;5021392;28;20358;-74
2022/07/06 10:28:38;;;;;;;0.10;0.10;;;;;;;;;;5030478;28;20238;-73
2022/07/06 10:31:05;;;;;;;0.00;0.00;;;;;;;;;;5020523;28;20250;-72
2022/07/06 10:33:32;;;;;;;0.00;0.00;;;;;;;;;;5030996;28;20236;-74
2022/07/06 10:35:58;;;;;;;0.03;0.03;;;;;;;;;;5018946;28;20280;-74
2022/07/06 10:38:31;;;;;;;0.00;0.00;;;;;;;;;;5031661;28;20231;-72
2022/07/06 10:41:04;;;;;;;0.00;0.00;;;;;;;;;;5019742;28;20260;-72
2022/07/06 10:43:34;;;;;;;0.10;0.10;;;;;;;;;;5031041;28;20427;-74
2022/07/06 10:46:07;;;;;;;0.10;0.10;;;;;;;;;;5020076;28;20243;-73
2022/07/06 10:48:37;;;;;;;0.00;0.00;;;;;;;;;;5030823;28;20464;-73
2022/07/06 10:51:04;;;;;;;0.00;0.00;;;;;;;;;;5020137;28;20316;-73
2022/07/06 10:53:33;;;;;;;0.00;0.00;;;;;;;;;;5030892;28;20207;-72
2022/07/06 10:55:59;;;;;;;0.00;0.00;;;;;;;;;;5019793;28;20306;-72
2022/07/06 10:58:43;;;;;;;0.00;0.00;;;;;;;;;;5031401;28;20257;-72
2022/07/06 11:01:12;;;;;;;0.00;0.00;;;;;;;;;;5021042;28;20431;-73
2022/07/06 11:03:39;;;;;;;0.00;0.00;;;;;;;;;;5029536;28;20407;-72
2022/07/06 11:06:07;;;;;;;0.03;0.03;;;;;;;;;;5020336;28;20316;-73
2022/07/06 11:08:43;;;;;;;0.00;0.00;;;;;;;;;;5030484;28;20431;-73
2022/07/06 11:11:12;;;;;;;0.00;0.00;;;;;;;;;;5021197;28;20302;-73
2022/07/06 11:13:42;;;;;;;0.00;0.00;;;;;;;;;;5029707;28;20205;-73
2022/07/06 11:16:09;;;;;;;0.00;0.00;;;;;;;;;;5020666;28;20247;-72
2022/07/06 11:18:41;;;;;;;0.00;0.00;;;;;;;;;;5029714;28;20229;-73
2022/07/06 11:21:20;;;;;;;0.00;0.00;;;;;;;;;;5020493;28;20361;-73
2022/07/06 11:23:48;;;;;;;0.00;0.00;;;;;;;;;;5028577;28;20496;-74
2022/07/06 11:26:14;;;;;;;0.00;0.00;;;;;;;;;;5020502;28;20434;-74
2022/07/06 11:28:41;;;;;;;0.00;0.00;;;;;;;;;;5029918;28;20229;-73
2022/07/06 11:31:07;;;;;;;0.00;0.00;;;;;;;;;;5020324;28;20247;-74
2022/07/06 11:33:34;;;;;;;0.00;0.00;;;;;;;;;;5030463;28;20380;-73
2022/07/06 11:36:14;;;;;;;0.08;0.08;;;;;;;;;;5019413;28;20402;-74
2022/07/06 11:38:40;;;;;;;0.00;0.00;;;;;;;;;;5029180;28;20229;-75
2022/07/06 11:41:06;;;;;;;0.00;0.00;;;;;;;;;;5020290;28;20244;-74
2022/07/06 11:43:33;;;;;;;0.10;0.10;;;;;;;;;;5029603;28;20209;-73
2022/07/06 11:45:59;;;;;;;0.00;0.00;;;;;;;;;;5019079;28;20275;-73
2022/07/06 11:48:26;;;;;;;0.00;0.00;;;;;;;;;;5033716;28;20271;-73
2022/07/06 11:50:59;;;;;;;0.00;0.00;;;;;;;;;;5022050;28;20483;-74
2022/07/06 11:53:27;;;;;;;0.00;0.00;;;;;;;;;;5034875;28;20203;-73
2022/07/06 11:55:53;;;;;;;0.00;0.00;;;;;;;;;;5021874;28;20247;-74
2022/07/06 11:58:21;;;;;;;0.00;0.00;;;;;;;;;;5035488;28;20299;-74
2022/07/06 12:01:03;;;;;;;0.00;0.00;;;;;;;;;;5021030;28;20247;-74
2022/07/06 12:03:29;;;;;;;0.00;0.00;;;;;;;;;;5034323;28;20269;-75
2022/07/06 12:05:56;;;;;;;0.00;0.00;;;;;;;;;;5022314;28;20241;-74
2022/07/06 12:08:22;;;;;;;0.10;0.10;;;;;;;;;;5035021;28;20536;-73
2022/07/06 12:10:50;;;;;;;0.10;0.10;;;;;;;;;;5021077;28;20459;-74
2022/07/06 12:13:16;;;;;;;0.00;0.00;;;;;;;;;;5035662;28;20217;-72
2022/07/06 12:15:43;;;;;;;0.00;0.00;;;;;;;;;;5020364;28;20255;-74
2022/07/06 12:18:10;;;;;;;0.00;0.00;;;;;;;;;;5036135;28;20543;-73
2022/07/06 12:20:36;;;;;;;0.00;0.00;;;;;;;;;;5019784;28;20574;-75
2022/07/06 12:23:03;;;;;;;0.00;0.00;;;;;;;;;;5037047;28;20240;-75
2022/07/06 12:25:32;;;;;;;0.00;0.00;;;;;;;;;;5015957;28;20254;-72
2022/07/06 12:28:00;;;;;;;0.00;0.00;;;;;;;;;;5039595;28;20217;-74
2022/07/06 12:30:27;;;;;;;0.00;0.00;;;;;;;;;;5018105;28;20315;-74
2022/07/06 12:33:13;;;;;;;0.00;0.00;;;;;;;;;;5037924;28;20426;-74
2022/07/06 12:35:40;;;;;;;0.00;0.00;;;;;;;;;;5017585;28;20208;-76
2022/07/06 12:38:07;;;;;;;0.00;0.00;;;;;;;;;;5037056;28;20209;-76
2022/07/06 12:40:33;;;;;;;0.05;0.05;;;;;;;;;;5018535;28;20251;-72
2022/07/06 12:43:01;;;;;;;0.00;0.00;;;;;;;;;;5036996;28;20516;-73
2022/07/06 12:45:28;;;;;;;0.08;0.08;;;;;;;;;;5018096;28;20256;-73
2022/07/06 12:47:58;;;;;;;0.00;0.00;;;;;;;;;;5037367;28;20200;-74
2022/07/06 12:50:32;;;;;;;0.10;0.10;;;;;;;;;;5017062;28;20208;-74
2022/07/06 12:52:58;;;;;;;0.00;0.00;;;;;;;;;;5036866;28;20214;-75
2022/07/06 12:55:27;;;;;;;0.00;0.00;;;;;;;;;;5017679;28;20483;-73
2022/07/06 12:57:54;;;;;;;0.00;0.00;;;;;;;;;;5037559;28;20233;-73
2022/07/06 13:00:22;;;;;;;0.00;0.00;;;;;;;;;;5016027;28;20251;-74
2022/07/06 13:02:53;;;;;;;0.00;0.00;;;;;;;;;;5038276;28;20238;-73
2022/07/06 13:05:27;;;;;;;0.00;0.00;;;;;;;;;;5016640;28;20209;-76
2022/07/06 13:07:54;;;;;;;0.00;0.00;;;;;;;;;;5037447;28;20276;-73
2022/07/06 13:10:21;;;;;;;0.00;0.00;;;;;;;;;;5016350;28;20426;-72
2022/07/06 13:12:47;;;;;;;0.10;0.10;;;;;;;;;;5038074;28;20225;-74
2022/07/06 13:15:14;;;;;;;0.00;0.00;;;;;;;;;;5015442;28;20236;-74
2022/07/06 13:17:42;;;;;;;0.00;0.00;;;;;;;;;;5038291;28;20233;-73
2022/07/06 13:20:10;;;;;;;0.00;0.00;;;;;;;;;;5014986;28;20213;-74
2022/07/06 13:22:36;;;;;;;0.00;0.00;;;;;;;;;;5039423;28;20194;-74
2022/07/06 13:25:03;;;;;;;0.00;0.00;;;;;;;;;;5024246;28;20225;-73
2022/07/06 13:27:30;;;;;;;0.00;0.00;;;;;;;;;;5013097;28;20205;-72
2022/07/06 13:29:56;;;;;;;0.00;0.00;;;;;;;;;;5024277;28;20276;-74
2022/07/06 13:32:22;;;;;;;0.00;0.00;;;;;;;;;;5029520;28;20551;-75
2022/07/06 13:34:50;;;;;;;0.00;0.00;;;;;;;;;;5024196;28;20209;-74
2022/07/06 13:37:17;;;;;;;0.10;0.10;;;;;;;;;;5029284;28;20243;-74
2022/07/06 13:39:47;;;;;;;0.00;0.00;;;;;;;;;;5024552;28;20392;-73
2022/07/06 13:42:14;;;;;;;0.00;0.00;;;;;;;;;;5029258;28;20481;-74
2022/07/06 13:44:40;;;;;;;0.00;0.00;;;;;;;;;;5024054;28;20233;-74
2022/07/06 13:47:07;;;;;;;0.00;0.00;;;;;;;;;;5029148;28;20351;-73
2022/07/06 13:49:33;;;;;;;0.00;0.00;;;;;;;;;;5024313;28;20213;-73
2022/07/06 13:52:03;;;;;;;0.00;0.00;;;;;;;;;;5028283;28;20236;-73
2022/07/06 13:54:29;;;;;;;0.00;0.00;;;;;;;;;;5024550;28;20209;-73
2022/07/06 13:56:56;;;;;;;0.00;0.00;;;;;;;;;;5027862;28;20244;-74
2022/07/06 13:59:22;;;;;;;0.00;0.00;;;;;;;;;;5024737;28;20332;-74
2022/07/06 14:01:49;;;;;;;0.00;0.00;;;;;;;;;;5026621;28;20262;-74
2022/07/06 14:04:15;;;;;;;0.00;0.00;;;;;;;;;;5026102;28;20275;-71
2022/07/06 14:06:41;;;;;;;0.00;0.00;;;;;;;;;;5025788;28;20264;-73
2022/07/06 14:09:09;;;;;;;0.00;0.00;;;;;;;;;;5026855;28;20394;-73
2022/07/06 14:11:35;;;;;;;0.00;0.00;;;;;;;;;;5023834;28;20312;-73
2022/07/06 14:14:02;;;;;;;0.10;0.10;;;;;;;;;;5026979;28;20205;-73
2022/07/06 14:16:28;;;;;;;0.03;0.03;;;;;;;;;;5023834;28;20243;-73
2022/07/06 14:18:55;;;;;;;0.00;0.00;;;;;;;;;;5028187;28;20465;-73
2022/07/06 14:21:21;;;;;;;0.00;0.00;;;;;;;;;;5022817;28;20240;-72
2022/07/06 14:23:48;;;;;;;0.00;0.00;;;;;;;;;;5028803;28;20206;-72
2022/07/06 14:26:16;;;;;;;0.00;0.00;;;;;;;;;;5021862;28;20299;-72
2022/07/06 14:28:42;;;;;;;0.00;0.00;;;;;;;;;;5029797;28;20393;-73
2022/07/06 14:31:09;;;;;;;0.00;0.00;;;;;;;;;;5021329;28;20602;-73
2022/07/06 14:33:35;;;;;;;0.00;0.00;;;;;;;;;;5030552;28;20206;-71
2022/07/06 14:36:02;;;;;;;0.00;0.00;;;;;;;;;;5020159;28;20375;-72
2022/07/06 14:38:28;;;;;;;0.00;0.00;;;;;;;;;;5030996;28;20228;-71
2022/07/06 14:40:54;;;;;;;0.00;0.00;;;;;;;;;;5019178;28;20478;-71
2022/07/06 14:43:22;;;;;;;0.00;0.00;;;;;;;;;;5031829;28;20205;-74
2022/07/06 14:45:49;;;;;;;0.00;0.00;;;;;;;;;;5018309;28;20282;-72
2022/07/06 14:48:16;;;;;;;0.00;0.00;;;;;;;;;;5032365;28;20197;-72
2022/07/06 14:50:42;;;;;;;0.00;0.00;;;;;;;;;;5016931;28;20271;-72